sensor_id;sensor_type;location;lat;lon;timestamp;P1;durP1;ratioP1;P2;durP2;ratioP2
67164;SDS011;54093;50.014;19.984;2023-04-06T00:05:47;11.85;;;4.18;;
67164;SDS011;54093;50.014;19.984;2023-04-06T00:15:08;8.95;;;4.55;;
67164;SDS011;54093;50.014;19.984;2023-04-06T00:24:30;7.80;;;3.97;;
67164;SDS011;54093;50.014;19.984;2023-04-06T00:33:51;11.10;;;5.45;;
67164;SDS011;54093;50.014;19.984;2023-04-06T00:43:12;10.27;;;5.20;;
67164;SDS011;54093;50.014;19.984;2023-04-06T00:52:33;7.60;;;4.60;;
67164;SDS011;54093;50.014;19.984;2023-04-06T01:01:56;5.50;;;5.00;;
67164;SDS011;54093;50.014;19.984;2023-04-06T01:11:17;7.78;;;4.85;;
67164;SDS011;54093;50.014;19.984;2023-04-06T01:20:38;9.43;;;5.15;;
67164;SDS011;54093;50.014;19.984;2023-04-06T01:29:59;7.30;;;5.40;;
67164;SDS011;54093;50.014;19.984;2023-04-06T01:39:20;7.00;;;4.78;;
67164;SDS011;54093;50.014;19.984;2023-04-06T01:48:41;5.85;;;4.63;;
67164;SDS011;54093;50.014;19.984;2023-04-06T01:58:02;4.40;;;4.00;;
67164;SDS011;54093;50.014;19.984;2023-04-06T02:07:23;6.85;;;4.82;;
67164;SDS011;54093;50.014;19.984;2023-04-06T02:16:44;9.32;;;4.70;;
67164;SDS011;54093;50.014;19.984;2023-04-06T02:26:05;5.30;;;4.63;;
67164;SDS011;54093;50.014;19.984;2023-04-06T02:35:27;6.28;;;4.85;;
67164;SDS011;54093;50.014;19.984;2023-04-06T02:44:49;6.97;;;5.28;;
67164;SDS011;54093;50.014;19.984;2023-04-06T02:54:10;7.32;;;5.90;;
67164;SDS011;54093;50.014;19.984;2023-04-06T03:03:31;9.57;;;6.03;;
67164;SDS011;54093;50.014;19.984;2023-04-06T03:12:52;4.30;;;4.00;;
67164;SDS011;54093;50.014;19.984;2023-04-06T03:22:12;6.57;;;4.18;;
67164;SDS011;54093;50.014;19.984;2023-04-06T03:31:33;7.97;;;4.50;;
67164;SDS011;54093;50.014;19.984;2023-04-06T03:40:54;3.85;;;3.55;;
67164;SDS011;54093;50.014;19.984;2023-04-06T03:50:15;4.57;;;4.18;;
67164;SDS011;54093;50.014;19.984;2023-04-06T03:59:36;4.80;;;3.80;;
67164;SDS011;54093;50.014;19.984;2023-04-06T04:08:57;7.13;;;3.92;;
67164;SDS011;54093;50.014;19.984;2023-04-06T04:18:18;5.82;;;5.25;;
67164;SDS011;54093;50.014;19.984;2023-04-06T04:27:39;6.20;;;4.43;;
67164;SDS011;54093;50.014;19.984;2023-04-06T04:37:00;4.80;;;4.30;;
67164;SDS011;54093;50.014;19.984;2023-04-06T04:46:21;8.02;;;3.95;;
67164;SDS011;54093;50.014;19.984;2023-04-06T04:55:42;7.32;;;3.65;;
67164;SDS011;54093;50.014;19.984;2023-04-06T05:05:03;5.18;;;4.70;;
67164;SDS011;54093;50.014;19.984;2023-04-06T05:14:24;5.28;;;4.82;;
67164;SDS011;54093;50.014;19.984;2023-04-06T05:23:45;9.00;;;4.13;;
67164;SDS011;54093;50.014;19.984;2023-04-06T05:33:06;5.78;;;5.00;;
67164;SDS011;54093;50.014;19.984;2023-04-06T05:42:27;14.20;;;4.57;;
67164;SDS011;54093;50.014;19.984;2023-04-06T05:51:48;5.20;;;4.03;;
67164;SDS011;54093;50.014;19.984;2023-04-06T06:01:09;11.30;;;3.85;;
67164;SDS011;54093;50.014;19.984;2023-04-06T06:10:30;4.03;;;3.72;;
67164;SDS011;54093;50.014;19.984;2023-04-06T06:19:51;3.30;;;3.10;;
67164;SDS011;54093;50.014;19.984;2023-04-06T06:29:12;4.82;;;3.13;;
67164;SDS011;54093;50.014;19.984;2023-04-06T06:38:33;6.15;;;3.72;;
67164;SDS011;54093;50.014;19.984;2023-04-06T06:47:54;4.32;;;3.65;;
67164;SDS011;54093;50.014;19.984;2023-04-06T06:57:15;4.20;;;3.03;;
67164;SDS011;54093;50.014;19.984;2023-04-06T07:06:36;4.20;;;3.80;;
67164;SDS011;54093;50.014;19.984;2023-04-06T07:15:57;4.93;;;4.43;;
67164;SDS011;54093;50.014;19.984;2023-04-06T07:25:18;4.90;;;4.50;;
67164;SDS011;54093;50.014;19.984;2023-04-06T07:34:39;3.72;;;3.00;;
67164;SDS011;54093;50.014;19.984;2023-04-06T07:44:00;3.65;;;3.38;;
67164;SDS011;54093;50.014;19.984;2023-04-06T07:53:21;5.55;;;2.95;;
67164;SDS011;54093;50.014;19.984;2023-04-06T08:02:42;3.00;;;2.80;;
67164;SDS011;54093;50.014;19.984;2023-04-06T08:12:03;4.25;;;3.90;;
67164;SDS011;54093;50.014;19.984;2023-04-06T08:21:24;3.40;;;3.13;;
67164;SDS011;54093;50.014;19.984;2023-04-06T08:30:45;2.15;;;1.92;;
67164;SDS011;54093;50.014;19.984;2023-04-06T08:40:06;3.60;;;3.28;;
67164;SDS011;54093;50.014;19.984;2023-04-06T08:49:27;3.50;;;3.03;;
67164;SDS011;54093;50.014;19.984;2023-04-06T08:58:49;5.55;;;2.55;;
67164;SDS011;54093;50.014;19.984;2023-04-06T09:08:12;4.38;;;3.58;;
67164;SDS011;54093;50.014;19.984;2023-04-06T09:17:33;2.80;;;2.28;;
67164;SDS011;54093;50.014;19.984;2023-04-06T09:26:54;5.53;;;3.75;;
67164;SDS011;54093;50.014;19.984;2023-04-06T09:36:16;5.72;;;2.97;;
67164;SDS011;54093;50.014;19.984;2023-04-06T09:45:36;3.83;;;3.45;;
67164;SDS011;54093;50.014;19.984;2023-04-06T09:55:02;3.08;;;2.63;;
67164;SDS011;54093;50.014;19.984;2023-04-06T10:14:37;2.38;;;2.15;;
67164;SDS011;54093;50.014;19.984;2023-04-06T10:24:02;3.58;;;2.92;;
67164;SDS011;54093;50.014;19.984;2023-04-06T10:33:27;3.10;;;2.90;;
67164;SDS011;54093;50.014;19.984;2023-04-06T10:42:51;4.97;;;4.47;;
67164;SDS011;54093;50.014;19.984;2023-04-06T10:52:13;4.00;;;3.72;;
67164;SDS011;54093;50.014;19.984;2023-04-06T11:01:34;5.40;;;3.58;;
67164;SDS011;54093;50.014;19.984;2023-04-06T11:11:08;2.83;;;2.58;;
67164;SDS011;54093;50.014;19.984;2023-04-06T11:20:30;2.97;;;2.78;;
67164;SDS011;54093;50.014;19.984;2023-04-06T11:29:51;3.40;;;3.15;;
67164;SDS011;54093;50.014;19.984;2023-04-06T11:39:13;3.35;;;3.15;;
67164;SDS011;54093;50.014;19.984;2023-04-06T11:48:44;4.20;;;3.35;;
67164;SDS011;54093;50.014;19.984;2023-04-06T11:58:07;3.63;;;3.33;;
67164;SDS011;54093;50.014;19.984;2023-04-06T12:07:31;8.68;;;4.07;;
67164;SDS011;54093;50.014;19.984;2023-04-06T12:16:52;3.55;;;3.33;;
67164;SDS011;54093;50.014;19.984;2023-04-06T12:26:13;3.97;;;3.67;;
67164;SDS011;54093;50.014;19.984;2023-04-06T12:35:35;4.40;;;4.10;;
67164;SDS011;54093;50.014;19.984;2023-04-06T12:44:57;6.82;;;4.53;;
67164;SDS011;54093;50.014;19.984;2023-04-06T12:54:18;3.25;;;3.03;;
67164;SDS011;54093;50.014;19.984;2023-04-06T13:03:40;3.20;;;3.00;;
67164;SDS011;54093;50.014;19.984;2023-04-06T13:13:02;3.28;;;3.08;;
67164;SDS011;54093;50.014;19.984;2023-04-06T13:22:23;8.45;;;5.22;;
67164;SDS011;54093;50.014;19.984;2023-04-06T13:31:45;3.95;;;3.53;;
67164;SDS011;54093;50.014;19.984;2023-04-06T13:41:07;4.05;;;3.75;;
67164;SDS011;54093;50.014;19.984;2023-04-06T13:50:28;4.38;;;4.03;;
67164;SDS011;54093;50.014;19.984;2023-04-06T13:59:49;3.72;;;3.42;;
67164;SDS011;54093;50.014;19.984;2023-04-06T14:09:11;4.63;;;3.95;;
67164;SDS011;54093;50.014;19.984;2023-04-06T14:18:31;4.43;;;4.03;;
67164;SDS011;54093;50.014;19.984;2023-04-06T14:27:54;4.30;;;4.10;;
67164;SDS011;54093;50.014;19.984;2023-04-06T14:37:15;6.03;;;5.18;;
67164;SDS011;54093;50.014;19.984;2023-04-06T14:46:38;6.45;;;4.10;;
67164;SDS011;54093;50.014;19.984;2023-04-06T14:55:59;6.22;;;5.63;;
67164;SDS011;54093;50.014;19.984;2023-04-06T15:05:20;5.95;;;5.45;;
67164;SDS011;54093;50.014;19.984;2023-04-06T15:14:41;6.82;;;5.63;;
67164;SDS011;54093;50.014;19.984;2023-04-06T15:24:03;9.13;;;6.82;;
67164;SDS011;54093;50.014;19.984;2023-04-06T15:33:27;5.35;;;4.80;;
67164;SDS011;54093;50.014;19.984;2023-04-06T15:42:48;10.05;;;7.80;;
67164;SDS011;54093;50.014;19.984;2023-04-06T15:52:11;5.10;;;4.70;;
67164;SDS011;54093;50.014;19.984;2023-04-06T16:01:32;6.45;;;5.75;;
67164;SDS011;54093;50.014;19.984;2023-04-06T16:10:53;10.93;;;8.43;;
67164;SDS011;54093;50.014;19.984;2023-04-06T16:20:13;15.65;;;8.70;;
67164;SDS011;54093;50.014;19.984;2023-04-06T16:29:35;15.52;;;8.40;;
67164;SDS011;54093;50.014;19.984;2023-04-06T16:38:57;21.38;;;7.93;;
67164;SDS011;54093;50.014;19.984;2023-04-06T16:48:19;12.30;;;9.05;;
67164;SDS011;54093;50.014;19.984;2023-04-06T16:57:40;13.63;;;9.23;;
67164;SDS011;54093;50.014;19.984;2023-04-06T17:07:02;16.52;;;8.70;;
67164;SDS011;54093;50.014;19.984;2023-04-06T17:16:23;8.20;;;7.38;;
67164;SDS011;54093;50.014;19.984;2023-04-06T17:25:44;12.25;;;7.95;;
67164;SDS011;54093;50.014;19.984;2023-04-06T17:35:05;10.63;;;7.97;;
67164;SDS011;54093;50.014;19.984;2023-04-06T17:44:28;21.92;;;11.73;;
67164;SDS011;54093;50.014;19.984;2023-04-06T17:53:50;8.40;;;7.07;;
67164;SDS011;54093;50.014;19.984;2023-04-06T18:03:11;14.98;;;10.98;;
67164;SDS011;54093;50.014;19.984;2023-04-06T18:12:32;9.55;;;8.50;;
67164;SDS011;54093;50.014;19.984;2023-04-06T18:21:53;8.38;;;7.43;;
67164;SDS011;54093;50.014;19.984;2023-04-06T18:31:15;13.00;;;11.18;;
67164;SDS011;54093;50.014;19.984;2023-04-06T18:40:37;9.70;;;8.73;;
67164;SDS011;54093;50.014;19.984;2023-04-06T18:49:59;13.15;;;10.50;;
67164;SDS011;54093;50.014;19.984;2023-04-06T18:59:20;18.80;;;12.93;;
67164;SDS011;54093;50.014;19.984;2023-04-06T19:08:41;9.40;;;8.50;;
67164;SDS011;54093;50.014;19.984;2023-04-06T19:18:02;14.68;;;10.48;;
67164;SDS011;54093;50.014;19.984;2023-04-06T19:27:24;10.43;;;9.23;;
67164;SDS011;54093;50.014;19.984;2023-04-06T19:36:45;14.43;;;11.07;;
67164;SDS011;54093;50.014;19.984;2023-04-06T19:46:06;15.65;;;9.52;;
67164;SDS011;54093;50.014;19.984;2023-04-06T19:55:28;15.50;;;11.75;;
67164;SDS011;54093;50.014;19.984;2023-04-06T20:04:50;14.85;;;9.77;;
67164;SDS011;54093;50.014;19.984;2023-04-06T20:14:11;22.15;;;9.15;;
67164;SDS011;54093;50.014;19.984;2023-04-06T20:23:32;13.90;;;9.93;;
67164;SDS011;54093;50.014;19.984;2023-04-06T20:32:57;18.05;;;13.45;;
67164;SDS011;54093;50.014;19.984;2023-04-06T20:42:17;12.65;;;8.90;;
67164;SDS011;54093;50.014;19.984;2023-04-06T20:51:40;18.00;;;12.35;;
67164;SDS011;54093;50.014;19.984;2023-04-06T21:01:02;17.70;;;11.60;;
67164;SDS011;54093;50.014;19.984;2023-04-06T21:10:22;24.00;;;15.65;;
67164;SDS011;54093;50.014;19.984;2023-04-06T21:19:43;15.75;;;12.13;;
67164;SDS011;54093;50.014;19.984;2023-04-06T21:29:04;18.30;;;13.73;;
67164;SDS011;54093;50.014;19.984;2023-04-06T21:38:25;18.10;;;12.60;;
67164;SDS011;54093;50.014;19.984;2023-04-06T21:47:46;21.55;;;11.65;;
67164;SDS011;54093;50.014;19.984;2023-04-06T21:57:07;26.90;;;15.70;;
67164;SDS011;54093;50.014;19.984;2023-04-06T22:06:28;16.25;;;12.05;;
67164;SDS011;54093;50.014;19.984;2023-04-06T22:15:49;16.65;;;11.68;;
67164;SDS011;54093;50.014;19.984;2023-04-06T22:25:10;18.80;;;13.32;;
67164;SDS011;54093;50.014;19.984;2023-04-06T22:34:31;16.55;;;11.73;;
67164;SDS011;54093;50.014;19.984;2023-04-06T22:43:52;9.95;;;8.48;;
67164;SDS011;54093;50.014;19.984;2023-04-06T22:53:13;11.48;;;10.00;;
67164;SDS011;54093;50.014;19.984;2023-04-06T23:02:34;15.45;;;11.77;;
67164;SDS011;54093;50.014;19.984;2023-04-06T23:11:54;20.23;;;11.13;;
67164;SDS011;54093;50.014;19.984;2023-04-06T23:21:16;14.32;;;10.07;;
67164;SDS011;54093;50.014;19.984;2023-04-06T23:30:36;12.20;;;8.90;;
67164;SDS011;54093;50.014;19.984;2023-04-06T23:39:57;30.65;;;14.63;;
67164;SDS011;54093;50.014;19.984;2023-04-06T23:49:20;16.70;;;9.55;;
67164;SDS011;54093;50.014;19.984;2023-04-06T23:58:41;12.52;;;10.85;;
